Time;durP1;ratioP1;P1;durP2;ratioP2;P2;SDS_P1;SDS_P2;PMS_P1;PMS_P2;Temp;Humidity;BMP_temperature;BMP_pressure;BME280_temperature;BME280_humidity;BME280_pressure;Samples;Min_cycle;Max_cycle;Signal;HPM_P1;HPM_P2
2023/01/23 00:01:48;;;;;;;24.02;19.73;;;;;;;-4.48;93.37;96358.22;5091066;28;20081;-72
2023/01/23 00:04:14;;;;;;;51.33;32.38;;;;;;;-4.60;94.29;96346.47;5089032;28;20063;-71
2023/01/23 00:06:39;;;;;;;28.27;22.80;;;;;;;-4.56;95.37;96342.09;5093187;28;20042;-71
2023/01/23 00:09:06;;;;;;;66.05;38.97;;;;;;;-4.47;95.23;96344.50;5095908;28;20021;-60
2023/01/23 00:11:32;;;;;;;53.95;36.33;;;;;;;-4.44;94.16;96344.41;5085136;28;20504;-61
2023/01/23 00:13:59;;;;;;;37.67;30.33;;;;;;;-4.36;93.61;96339.09;5084794;28;20056;-61
2023/01/23 00:16:26;;;;;;;26.13;21.67;;;;;;;-4.47;93.47;96342.75;5091004;28;20047;-60
2023/01/23 00:18:53;;;;;;;20.80;18.23;;;;;;;-4.52;93.18;96338.59;5086016;28;20421;-60
2023/01/23 00:21:21;;;;;;;25.98;23.17;;;;;;;-4.45;93.69;96337.59;5088163;28;20024;-60
2023/01/23 00:23:49;;;;;;;40.10;33.25;;;;;;;-4.48;93.41;96335.91;5090410;28;20099;-60
2023/01/23 00:26:17;;;;;;;27.27;23.58;;;;;;;-4.46;93.97;96338.47;5092234;28;20012;-65
2023/01/23 00:28:43;;;;;;;27.38;21.35;;;;;;;-4.43;94.78;96325.53;5089691;28;20512;-60
2023/01/23 00:31:12;;;;;;;28.42;22.50;;;;;;;-4.48;94.48;96329.94;5090311;28;20116;-66
2023/01/23 00:33:39;;;;;;;30.63;23.60;;;;;;;-4.54;94.61;96330.06;5093845;28;20020;-65
2023/01/23 00:36:05;;;;;;;20.88;18.67;;;;;;;-4.39;93.61;96323.75;5090112;28;20032;-66
2023/01/23 00:38:30;;;;;;;22.38;19.20;;;;;;;-4.53;93.35;96330.03;5093640;28;20613;-66
2023/01/23 00:40:55;;;;;;;23.40;18.75;;;;;;;-4.57;93.97;96327.56;5091833;28;20141;-65
2023/01/23 00:43:22;;;;;;;23.10;20.05;;;;;;;-4.69;94.11;96326.97;5091979;28;20024;-65
2023/01/23 00:45:48;;;;;;;25.75;20.52;;;;;;;-4.66;94.79;96323.47;5085582;28;20051;-65
2023/01/23 00:48:13;;;;;;;23.85;20.58;;;;;;;-4.65;94.37;96327.72;5090908;28;20401;-65
2023/01/23 00:50:39;;;;;;;24.95;21.65;;;;;;;-4.66;94.47;96326.03;5090602;28;20044;-64
2023/01/23 00:53:04;;;;;;;19.98;17.85;;;;;;;-4.66;92.63;96324.31;5092047;28;20443;-64
2023/01/23 00:55:29;;;;;;;24.00;19.05;;;;;;;-4.57;92.89;96323.28;5087215;28;20801;-64
2023/01/23 00:57:55;;;;;;;21.02;17.88;;;;;;;-4.61;91.50;96325.06;5091950;28;20055;-64
2023/01/23 01:00:20;;;;;;;20.67;18.52;;;;;;;-4.71;92.47;96322.72;5088579;28;20050;-64
2023/01/23 01:02:46;;;;;;;20.30;18.10;;;;;;;-4.63;92.16;96326.81;5075686;28;20490;-64
2023/01/23 01:05:11;;;;;;;20.85;18.50;;;;;;;-4.74;93.17;96323.66;5088262;28;20103;-66
2023/01/23 01:07:36;;;;;;;20.50;18.27;;;;;;;-4.71;92.41;96322.72;5082282;28;20383;-65
2023/01/23 01:10:03;;;;;;;25.55;18.75;;;;;;;-4.74;93.19;96323.66;5084104;28;20393;-60
2023/01/23 01:12:28;;;;;;;24.40;20.40;;;;;;;-4.55;92.99;96323.22;5074499;28;20090;-60
2023/01/23 01:14:53;;;;;;;22.98;19.88;;;;;;;-4.50;92.81;96322.25;5083252;28;20425;-60
2023/01/23 01:17:19;;;;;;;22.05;19.38;;;;;;;-4.66;92.14;96319.19;5077590;28;20393;-60
2023/01/23 01:19:44;;;;;;;22.77;19.08;;;;;;;-4.81;93.83;96316.94;5087793;28;21523;-60
2023/01/23 01:22:10;;;;;;;22.40;19.10;;;;;;;-4.90;94.74;96316.28;5078837;28;20375;-60
2023/01/23 01:24:35;;;;;;;22.30;19.73;;;;;;;-4.86;93.99;96316.19;5081098;28;20031;-69
2023/01/23 01:27:00;;;;;;;20.70;18.55;;;;;;;-4.89;94.19;96317.97;5081850;28;20024;-66
2023/01/23 01:29:26;;;;;;;20.83;18.60;;;;;;;-4.96;94.07;96313.84;5080685;28;20115;-60
2023/01/23 01:31:51;;;;;;;21.30;18.30;;;;;;;-4.92;94.26;96314.59;5084625;28;20393;-60
2023/01/23 01:34:16;;;;;;;21.65;18.92;;;;;;;-4.95;94.25;96306.97;5079893;28;20035;-60
2023/01/23 01:36:42;;;;;;;20.80;17.67;;;;;;;-4.71;93.02;96308.16;5079957;28;20028;-60
2023/01/23 01:39:07;;;;;;;20.23;18.05;;;;;;;-4.91;93.13;96309.44;5085606;28;20048;-59
2023/01/23 01:41:32;;;;;;;20.10;17.92;;;;;;;-4.86;93.17;96317.06;5082912;28;20074;-60
2023/01/23 01:43:59;;;;;;;19.52;17.52;;;;;;;-4.76;93.16;96321.09;5077526;28;20103;-61
2023/01/23 01:46:28;;;;;;;21.17;17.83;;;;;;;-4.68;92.44;96320.09;5085345;28;20033;-61
2023/01/23 01:49:20;;;;;;;19.67;17.63;;;;;;;-4.72;92.79;96314.19;5085761;28;20024;-69
2023/01/23 01:52:09;;;;;;;19.95;17.25;;;;;;;-4.70;92.87;96314.13;5085299;28;20032;-69
2023/01/23 01:55:10;;;;;;;22.05;16.92;;;;;;;-4.78;92.01;96314.31;5086882;28;20024;-69
2023/01/23 01:57:40;;;;;;;21.00;16.27;;;;;;;-4.79;93.17;96318.59;5032094;28;20407;-68
2023/01/23 02:00:15;;;;;;;20.30;17.08;;;;;;;-4.83;92.40;96309.28;5067990;28;20854;-69
2023/01/23 02:02:49;;;;;;;18.83;16.58;;;;;;;-4.80;92.86;96323.78;5079910;28;20111;-61
2023/01/23 02:05:25;;;;;;;17.50;14.88;;;;;;;-4.86;92.14;96318.78;5086407;28;20054;-70
2023/01/23 02:07:58;;;;;;;15.63;14.00;;;;;;;-4.65;90.52;96308.03;5082541;28;20036;-69
2023/01/23 02:10:23;;;;;;;17.48;14.65;;;;;;;-4.62;88.44;96313.09;5087748;28;20028;-69
2023/01/23 02:12:51;;;;;;;17.05;15.25;;;;;;;-4.71;88.10;96318.44;5083967;28;20024;-69
2023/01/23 02:15:19;;;;;;;18.27;15.23;;;;;;;-4.82;88.99;96330.66;5082051;28;20037;-68
2023/01/23 02:17:46;;;;;;;18.60;16.15;;;;;;;-4.83;89.58;96334.13;5082908;28;20107;-69
2023/01/23 02:20:19;;;;;;;18.33;15.50;;;;;;;-4.84;88.76;96330.72;5083108;28;20016;-68
2023/01/23 02:23:09;;;;;;;18.35;16.00;;;;;;;-4.92;90.37;96332.56;5078626;28;20458;-65
2023/01/23 02:25:41;;;;;;;17.75;15.90;;;;;;;-4.97;90.29;96337.84;5084681;28;20478;-71
2023/01/23 02:28:08;;;;;;;16.27;14.60;;;;;;;-4.90;90.67;96328.25;5087650;28;20101;-69
2023/01/23 02:30:34;;;;;;;22.38;17.73;;;;;;;-4.99;91.93;96333.59;5083007;28;20032;-69
2023/01/23 02:33:18;;;;;;;17.70;15.75;;;;;;;-4.92;91.02;96324.88;5079017;28;20497;-68
2023/01/23 02:35:43;;;;;;;17.65;15.30;;;;;;;-4.94;91.04;96319.78;5084861;28;20065;-69
2023/01/23 02:38:08;;;;;;;17.52;15.73;;;;;;;-5.00;91.32;96325.03;5082531;28;20091;-69
2023/01/23 02:40:37;;;;;;;20.10;16.45;;;;;;;-5.06;91.30;96313.19;5084881;28;20015;-68
2023/01/23 02:43:05;;;;;;;17.92;16.02;;;;;;;-4.99;91.19;96313.88;5084718;28;20098;-71
2023/01/23 02:45:30;;;;;;;16.98;14.90;;;;;;;-5.01;90.05;96315.63;5077902;28;20113;-63
2023/01/23 02:47:56;;;;;;;18.35;15.02;;;;;;;-5.03;89.88;96309.69;5084524;28;20068;-63
2023/01/23 02:50:22;;;;;;;17.10;15.05;;;;;;;-5.08;89.91;96325.22;5087596;28;20064;-63
2023/01/23 02:52:49;;;;;;;16.48;14.77;;;;;;;-5.07;90.29;96323.47;5078666;28;20038;-63
2023/01/23 02:55:16;;;;;;;16.13;14.43;;;;;;;-5.06;90.07;96320.03;5084432;28;20028;-63
2023/01/23 02:57:44;;;;;;;18.33;14.57;;;;;;;-5.11;89.68;96316.72;5089269;28;20023;-63
2023/01/23 03:00:18;;;;;;;17.00;15.23;;;;;;;-5.06;89.89;96318.31;5083329;28;20020;-63
2023/01/23 03:02:46;;;;;;;16.70;15.07;;;;;;;-5.00;89.37;96304.47;5064318;28;20119;-69
2023/01/23 03:05:11;;;;;;;14.65;13.20;;;;;;;-5.07;88.61;96308.91;5084919;28;20097;-65
2023/01/23 03:07:37;;;;;;;14.88;13.40;;;;;;;-5.07;87.37;96308.91;5089352;28;20024;-65
2023/01/23 03:10:03;;;;;;;16.10;14.43;;;;;;;-5.13;88.44;96315.91;5085323;28;20063;-65
2023/01/23 03:12:29;;;;;;;15.25;13.27;;;;;;;-5.26;88.91;96316.13;5084554;28;20490;-65
2023/01/23 03:14:55;;;;;;;15.60;13.88;;;;;;;-5.01;87.89;96300.22;5087762;28;20027;-65
2023/01/23 03:17:21;;;;;;;16.27;13.70;;;;;;;-5.06;87.99;96312.31;5077153;28;20044;-65
2023/01/23 03:19:47;;;;;;;17.40;15.60;;;;;;;-5.12;87.83;96309.88;5080385;28;20054;-65
2023/01/23 03:22:13;;;;;;;15.65;12.68;;;;;;;-5.16;87.91;96305.69;5084434;28;20047;-65
2023/01/23 03:24:39;;;;;;;14.38;12.90;;;;;;;-5.14;87.32;96309.06;5086326;28;20447;-63
2023/01/23 03:27:04;;;;;;;14.65;13.18;;;;;;;-5.23;86.86;96307.53;5081519;28;20020;-63
2023/01/23 03:32:14;;;;;;;17.42;15.70;;;;;;;-5.18;85.94;96305.72;5083149;28;20031;-63
2023/01/23 03:34:41;;;;;;;15.82;14.13;;;;;;;-5.29;86.19;96300.78;5084617;28;20026;-63
2023/01/23 03:37:07;;;;;;;16.88;15.07;;;;;;;-5.24;87.10;96304.09;5080042;28;20365;-63
2023/01/23 03:42:17;;;;;;;17.70;15.43;;;;;;;-5.23;87.16;96292.97;5088050;28;20051;-63
2023/01/23 03:44:43;;;;;;;18.58;16.75;;;;;;;-5.20;87.20;96298.03;5076902;28;20434;-69
2023/01/23 03:47:08;;;;;;;17.55;15.85;;;;;;;-5.19;87.40;96297.19;5081691;28;20032;-70
2023/01/23 03:49:34;;;;;;;16.08;14.38;;;;;;;-5.18;87.37;96295.44;5070298;28;20033;-69
2023/01/23 03:51:59;;;;;;;16.52;14.80;;;;;;;-5.14;86.69;96288.53;5084196;28;20489;-68
2023/01/23 03:54:25;;;;;;;17.42;14.30;;;;;;;-5.12;86.32;96284.22;5083476;28;20020;-68
2023/01/23 03:56:50;;;;;;;17.77;15.63;;;;;;;-5.24;87.15;96291.28;5076923;28;20452;-69
2023/01/23 03:59:16;;;;;;;23.48;18.52;;;;;;;-5.22;87.03;96298.97;5079503;28;20460;-63
2023/01/23 04:01:41;;;;;;;20.20;16.92;;;;;;;-5.33;87.77;96296.59;5087726;28;20444;-65
2023/01/23 04:04:07;;;;;;;14.45;13.07;;;;;;;-5.39;88.48;96294.16;5083246;28;20482;-66
2023/01/23 04:06:32;;;;;;;15.50;13.63;;;;;;;-5.30;88.35;96298.28;5078204;28;20473;-65
2023/01/23 04:08:57;;;;;;;14.70;13.20;;;;;;;-5.35;89.14;96290.66;5078167;28;20046;-66
2023/01/23 04:11:25;;;;;;;15.65;14.15;;;;;;;-5.23;89.13;96284.44;5080175;28;20101;-65
2023/01/23 04:13:51;;;;;;;13.93;12.48;;;;;;;-5.06;87.06;96281.50;5090131;28;20085;-66
2023/01/23 04:16:16;;;;;;;14.27;12.77;;;;;;;-5.27;87.82;96278.50;5083386;28;20028;-65
2023/01/23 04:18:42;;;;;;;15.90;13.60;;;;;;;-5.31;88.02;96279.44;5085776;28;20481;-65
2023/01/23 04:21:07;;;;;;;14.48;13.07;;;;;;;-5.32;88.45;96270.06;5080828;28;20108;-63
2023/01/23 04:23:32;;;;;;;18.30;13.57;;;;;;;-5.26;88.21;96284.50;5083619;28;20056;-69
2023/01/23 04:25:58;;;;;;;15.23;13.68;;;;;;;-5.10;88.11;96290.97;5086705;28;20027;-69
2023/01/23 04:28:23;;;;;;;16.63;14.40;;;;;;;-5.22;88.52;96286.13;5082545;28;20032;-69
2023/01/23 04:30:50;;;;;;;16.50;14.63;;;;;;;-5.23;89.20;96282.69;5081645;28;20033;-69
2023/01/23 04:33:16;;;;;;;17.02;15.20;;;;;;;-5.39;89.82;96283.91;5087615;28;20027;-69
2023/01/23 04:35:55;;;;;;;14.63;13.15;;;;;;;-5.37;90.66;96274.44;5085712;28;20045;-69
2023/01/23 04:38:26;;;;;;;16.52;14.50;;;;;;;-5.49;90.59;96281.50;5076606;28;20039;-66
2023/01/23 04:40:52;;;;;;;21.73;13.73;;;;;;;-5.42;90.78;96291.63;5084719;28;20040;-64
2023/01/23 04:43:17;;;;;;;16.20;14.45;;;;;;;-5.47;91.47;96291.75;5082718;28;20032;-60
2023/01/23 04:45:43;;;;;;;16.17;14.45;;;;;;;-5.33;91.72;96283.75;5087385;28;20041;-60
2023/01/23 04:48:09;;;;;;;19.42;16.67;;;;;;;-5.42;92.08;96284.78;5081472;28;20482;-60
2023/01/23 04:50:35;;;;;;;17.90;16.00;;;;;;;-5.51;92.93;96290.13;5080768;28;20460;-60
2023/01/23 04:53:01;;;;;;;18.42;16.48;;;;;;;-5.44;92.47;96285.69;5086147;28;20107;-60
2023/01/23 04:55:27;;;;;;;16.10;14.50;;;;;;;-5.40;92.30;96271.94;5083415;28;20032;-60
2023/01/23 04:57:53;;;;;;;15.90;14.00;;;;;;;-5.45;90.89;96269.44;5082083;28;20506;-69
2023/01/23 05:00:19;;;;;;;14.43;12.93;;;;;;;-5.44;90.32;96271.16;5080259;28;20042;-63
2023/01/23 05:02:45;;;;;;;13.57;12.05;;;;;;;-5.46;88.98;96267.75;5087488;28;20462;-71
2023/01/23 05:05:11;;;;;;;14.05;12.57;;;;;;;-5.36;88.56;96263.28;5085721;28;20053;-71
2023/01/23 05:07:37;;;;;;;13.32;12.00;;;;;;;-5.28;88.71;96261.41;5092232;28;20028;-71
2023/01/23 05:10:02;;;;;;;13.82;12.43;;;;;;;-5.41;88.56;96267.69;5086832;28;20108;-72
2023/01/23 05:12:28;;;;;;;15.77;13.35;;;;;;;-5.40;89.10;96266.81;5080071;28;20149;-71
2023/01/23 05:14:53;;;;;;;16.83;13.13;;;;;;;-5.46;89.06;96263.47;5090111;28;20646;-71
2023/01/23 05:17:18;;;;;;;14.45;12.95;;;;;;;-5.42;89.12;96268.53;5085092;28;20085;-66
2023/01/23 05:19:44;;;;;;;15.55;13.90;;;;;;;-5.36;89.18;96268.44;5086382;28;20028;-71
2023/01/23 05:22:09;;;;;;;16.42;14.60;;;;;;;-5.37;89.41;96266.75;5087792;28;20042;-62
2023/01/23 05:24:34;;;;;;;15.98;14.15;;;;;;;-5.51;89.76;96264.44;5085332;28;20095;-63
2023/01/23 05:27:00;;;;;;;17.13;14.63;;;;;;;-5.58;90.64;96266.28;5085470;28;20027;-62
2023/01/23 05:29:25;;;;;;;17.73;14.23;;;;;;;-5.52;90.99;96273.03;5084998;28;20448;-62
2023/01/23 05:31:50;;;;;;;15.95;12.65;;;;;;;-5.39;89.81;96269.31;5087999;28;20370;-62
2023/01/23 05:34:16;;;;;;;16.88;13.43;;;;;;;-5.34;88.79;96264.09;5087287;28;20498;-62
2023/01/23 05:36:41;;;;;;;22.27;17.90;;;;;;;-5.31;87.26;96256.34;5083693;28;20510;-71
2023/01/23 05:39:06;;;;;;;15.18;13.63;;;;;;;-5.42;86.54;96260.81;5082165;28;20050;-63
2023/01/23 05:41:33;;;;;;;19.15;13.82;;;;;;;-5.44;87.09;96265.16;5081711;28;20097;-65
2023/01/23 05:43:58;;;;;;;14.82;13.13;;;;;;;-5.54;86.92;96260.22;5084020;28;20435;-65
2023/01/23 05:46:23;;;;;;;15.45;13.73;;;;;;;-5.51;86.15;96262.72;5086197;28;20485;-65
2023/01/23 05:48:50;;;;;;;15.80;14.20;;;;;;;-5.48;86.92;96262.66;5084573;28;20024;-65
2023/01/23 05:51:16;;;;;;;14.68;13.23;;;;;;;-5.58;88.63;96258.59;5083710;28;20028;-65
2023/01/23 05:53:42;;;;;;;16.90;14.80;;;;;;;-5.44;87.84;96260.00;5088529;28;20085;-66
2023/01/23 05:56:08;;;;;;;17.63;15.18;;;;;;;-5.47;88.20;96268.63;5082317;28;20024;-73
2023/01/23 05:58:33;;;;;;;21.48;16.88;;;;;;;-5.52;88.67;96258.47;5074467;28;20032;-65
2023/01/23 06:01:01;;;;;;;15.65;14.05;;;;;;;-5.63;88.56;96257.84;5081665;28;20535;-64
2023/01/23 06:03:27;;;;;;;17.88;14.98;;;;;;;-5.65;89.11;96259.56;5090530;28;20028;-63
2023/01/23 06:05:52;;;;;;;19.27;16.35;;;;;;;-5.50;88.64;96261.84;5084514;28;20112;-64
2023/01/23 06:08:17;;;;;;;15.98;14.38;;;;;;;-5.65;89.04;96264.69;5088296;28;20115;-65
2023/01/23 06:10:43;;;;;;;15.98;13.50;;;;;;;-5.72;89.58;96269.13;5088441;28;20482;-65
2023/01/23 06:13:09;;;;;;;15.35;12.90;;;;;;;-5.83;89.63;96263.31;5084776;28;20069;-66
2023/01/23 06:15:34;;;;;;;18.17;15.27;;;;;;;-5.75;89.70;96262.31;5088299;28;20035;-72
2023/01/23 06:17:59;;;;;;;18.42;16.52;;;;;;;-5.61;89.47;96261.22;5087652;28;20028;-60
2023/01/23 06:20:24;;;;;;;17.13;15.15;;;;;;;-5.64;88.72;96259.53;5079121;28;20020;-61
2023/01/23 06:22:50;;;;;;;16.90;15.10;;;;;;;-5.71;88.85;96257.13;5084028;28;20047;-60
2023/01/23 06:25:17;;;;;;;16.90;14.18;;;;;;;-5.81;90.08;96257.31;5088806;28;20031;-61
2023/01/23 06:27:42;;;;;;;16.52;14.85;;;;;;;-5.81;90.57;96265.00;5075968;28;20066;-60
2023/01/23 06:30:08;;;;;;;17.98;15.55;;;;;;;-5.80;91.33;96261.56;5079180;28;20052;-60
2023/01/23 06:32:34;;;;;;;18.17;16.27;;;;;;;-5.56;90.45;96269.66;5082813;28;20604;-60
2023/01/23 06:35:01;;;;;;;18.20;15.18;;;;;;;-5.59;89.84;96259.47;5088941;28;20023;-64
2023/01/23 06:37:26;;;;;;;15.25;13.70;;;;;;;-5.45;88.45;96259.19;5083433;28;20719;-66
2023/01/23 06:39:51;;;;;;;17.67;15.98;;;;;;;-5.70;89.81;96259.66;5082881;28;20028;-66
2023/01/23 06:42:17;;;;;;;17.88;15.57;;;;;;;-5.75;91.07;96254.63;5086314;28;20390;-66
2023/01/23 06:44:42;;;;;;;18.35;16.25;;;;;;;-5.74;91.03;96268.31;5085783;28;20102;-66
2023/01/23 06:47:07;;;;;;;19.70;16.23;;;;;;;-5.71;91.02;96273.38;5083783;28;20028;-66
2023/01/23 06:49:33;;;;;;;26.25;18.58;;;;;;;-5.58;91.15;96268.00;5080594;28;20032;-66
2023/01/23 06:51:58;;;;;;;18.50;16.50;;;;;;;-5.38;89.35;96268.44;5083170;28;20036;-65
2023/01/23 06:54:23;;;;;;;23.15;18.63;;;;;;;-5.51;89.69;96272.16;5089141;28;20036;-64
2023/01/23 06:56:49;;;;;;;21.88;19.58;;;;;;;-5.48;88.68;96279.78;5079119;28;20032;-69
2023/01/23 06:59:14;;;;;;;14.90;13.32;;;;;;;-5.41;87.37;96268.50;5086746;28;20421;-69
2023/01/23 07:01:40;;;;;;;18.38;15.65;;;;;;;-5.57;87.94;96267.97;5088457;28;20058;-69
2023/01/23 07:04:07;;;;;;;24.52;20.88;;;;;;;-5.67;89.62;96266.44;5085717;28;20062;-69
2023/01/23 07:06:33;;;;;;;24.88;20.25;;;;;;;-5.73;91.05;96264.84;5086600;28;20028;-69
2023/01/23 07:08:58;;;;;;;19.08;16.73;;;;;;;-5.83;90.84;96264.19;5085633;28;20565;-70
2023/01/23 07:11:24;;;;;;;17.77;14.85;;;;;;;-5.90;90.88;96266.00;5086497;28;20537;-72
2023/01/23 07:13:49;;;;;;;21.05;16.58;;;;;;;-5.86;91.47;96268.50;5089531;28;20024;-66
2023/01/23 07:16:14;;;;;;;16.70;15.10;;;;;;;-5.75;91.19;96279.41;5086798;28;20065;-61
2023/01/23 07:18:40;;;;;;;19.95;17.02;;;;;;;-5.66;91.48;96273.25;5080524;28;20462;-61
2023/01/23 07:21:05;;;;;;;19.50;16.70;;;;;;;-5.53;90.27;96279.88;5083067;28;20054;-61
2023/01/23 07:23:32;;;;;;;17.30;15.55;;;;;;;-5.61;89.99;96277.44;5078844;28;20616;-61
2023/01/23 07:26:03;;;;;;;18.48;14.50;;;;;;;-5.64;91.04;96276.63;5081450;28;20036;-60
2023/01/23 07:28:28;;;;;;;19.70;16.23;;;;;;;-5.79;91.79;96294.03;5080387;28;20027;-61
2023/01/23 07:30:55;;;;;;;21.58;17.30;;;;;;;-5.84;92.28;96277.88;5086579;28;20019;-62
2023/01/23 07:33:21;;;;;;;20.65;18.45;;;;;;;-5.92;93.04;96290.84;5061537;28;20416;-67
2023/01/23 07:35:46;;;;;;;23.38;18.20;;;;;;;-6.07;93.05;96286.84;5085404;28;20032;-66
2023/01/23 07:38:11;;;;;;;20.10;17.85;;;;;;;-5.97;93.00;96279.81;5083242;28;20123;-65
2023/01/23 07:40:37;;;;;;;21.45;19.15;;;;;;;-6.08;93.89;96292.84;5085037;28;20063;-65
2023/01/23 07:43:04;;;;;;;23.42;20.85;;;;;;;-6.11;94.15;96285.19;5082573;28;20512;-64
2023/01/23 07:45:29;;;;;;;24.10;21.65;;;;;;;-6.08;94.94;96282.59;5076553;28;20099;-64
2023/01/23 07:47:54;;;;;;;21.25;19.05;;;;;;;-5.91;93.78;96282.28;5086797;28;20107;-64
2023/01/23 07:50:20;;;;;;;23.02;20.63;;;;;;;-5.90;93.66;96288.22;5086091;28;20077;-63
2023/01/23 07:52:45;;;;;;;23.63;19.27;;;;;;;-5.95;94.04;96288.34;5084892;28;20019;-62
2023/01/23 07:55:11;;;;;;;22.75;19.67;;;;;;;-6.09;93.83;96283.44;5080013;28;20551;-69
2023/01/23 07:57:36;;;;;;;26.88;20.48;;;;;;;-6.08;93.86;96280.03;5069392;28;20036;-70
2023/01/23 08:00:03;;;;;;;25.15;21.10;;;;;;;-6.24;94.16;96286.28;5083796;28;20087;-69
2023/01/23 08:02:28;;;;;;;24.33;20.42;;;;;;;-6.16;93.82;96284.44;5081058;28;20048;-69
2023/01/23 08:04:53;;;;;;;29.65;23.48;;;;;;;-6.35;94.46;96289.03;5082581;28;20067;-68
2023/01/23 08:07:19;;;;;;;21.55;19.25;;;;;;;-6.39;94.59;96284.81;5089294;28;20036;-67
2023/01/23 08:09:44;;;;;;;22.67;19.52;;;;;;;-6.15;93.50;96291.25;5079474;28;20379;-67
2023/01/23 08:12:11;;;;;;;22.15;19.40;;;;;;;-6.10;93.27;96294.56;5081416;28;20024;-60
2023/01/23 08:14:36;;;;;;;24.30;20.13;;;;;;;-6.24;94.07;96296.53;5085185;28;20028;-66
2023/01/23 08:17:01;;;;;;;26.60;21.80;;;;;;;-6.17;94.32;96295.56;5087309;28;20077;-66
2023/01/23 08:19:27;;;;;;;26.75;21.17;;;;;;;-6.28;95.00;96290.59;5091016;28;20043;-66
2023/01/23 08:21:53;;;;;;;25.27;20.42;;;;;;;-6.09;93.60;96295.44;5090308;28;20020;-67
2023/01/23 08:24:18;;;;;;;23.05;19.55;;;;;;;-6.20;92.65;96304.13;5090229;28;20024;-66
2023/01/23 08:26:44;;;;;;;22.15;18.65;;;;;;;-6.34;93.34;96299.22;5091362;28;20081;-66
2023/01/23 08:29:09;;;;;;;19.58;17.58;;;;;;;-6.38;93.56;96296.75;5088643;28;20040;-67
2023/01/23 08:31:35;;;;;;;23.60;20.63;;;;;;;-6.39;93.91;96301.03;5089950;28;20036;-67
2023/01/23 08:34:01;;;;;;;23.58;18.75;;;;;;;-6.38;94.09;96310.41;5088375;28;20035;-72
2023/01/23 08:36:27;;;;;;;23.77;18.33;;;;;;;-6.44;94.48;96307.94;5081276;28;20028;-73
2023/01/23 08:38:52;;;;;;;24.88;19.60;;;;;;;-6.50;94.74;96308.03;5080308;28;20056;-73
2023/01/23 08:41:17;;;;;;;26.20;20.45;;;;;;;-6.49;95.71;96300.31;5083167;28;20033;-72
2023/01/23 08:43:43;;;;;;;41.60;31.65;;;;;;;-6.54;95.12;96301.25;5077176;28;20063;-72
2023/01/23 08:46:09;;;;;;;28.75;24.25;;;;;;;-6.47;95.46;96293.44;5079652;28;20029;-73
2023/01/23 08:48:34;;;;;;;24.83;19.48;;;;;;;-6.45;94.03;96297.72;5085527;28;20510;-73
2023/01/23 08:51:03;;;;;;;20.58;18.48;;;;;;;-6.44;93.06;96292.56;5078944;28;20055;-72
2023/01/23 08:53:30;;;;;;;18.83;16.17;;;;;;;-6.37;92.51;96285.63;5088556;28;20038;-64
2023/01/23 08:56:14;;;;;;;19.40;16.77;;;;;;;-6.38;92.24;96302.72;5085691;28;20051;-65
2023/01/23 08:58:39;;;;;;;19.52;17.58;;;;;;;-6.31;91.86;96293.22;5081922;28;20017;-65
2023/01/23 09:01:04;;;;;;;18.63;16.70;;;;;;;-6.33;92.24;96298.34;5086775;28;20085;-64
2023/01/23 09:03:30;;;;;;;19.48;17.48;;;;;;;-6.18;92.01;96293.88;5088003;28;20035;-64
2023/01/23 09:05:59;;;;;;;18.45;16.48;;;;;;;-6.13;91.66;96299.75;5084615;28;20107;-64
2023/01/23 09:08:24;;;;;;;17.33;15.52;;;;;;;-6.00;91.68;96295.22;5087053;28;20034;-61
2023/01/23 09:10:50;;;;;;;18.23;16.25;;;;;;;-5.94;92.12;96289.16;5086940;28;20024;-61
2023/01/23 09:13:18;;;;;;;17.83;15.93;;;;;;;-5.79;91.83;96303.44;5087479;28;20154;-65
2023/01/23 09:15:44;;;;;;;19.13;17.23;;;;;;;-5.63;91.02;96297.16;5089077;28;20023;-65
2023/01/23 09:18:09;;;;;;;20.25;18.23;;;;;;;-5.65;91.34;96295.47;5087815;28;20401;-65
2023/01/23 09:20:37;;;;;;;20.00;17.90;;;;;;;-5.55;91.67;96299.56;5089525;28;20023;-65
2023/01/23 09:23:02;;;;;;;20.10;18.08;;;;;;;-5.37;92.33;96297.53;5088925;28;20019;-65
2023/01/23 09:25:30;;;;;;;18.83;17.02;;;;;;;-5.13;90.92;96285.91;5086806;28;20020;-65
2023/01/23 09:27:55;;;;;;;18.02;16.13;;;;;;;-4.64;90.42;96284.03;5087935;28;20140;-65
2023/01/23 09:30:20;;;;;;;18.95;16.65;;;;;;;-4.53;88.89;96267.50;5089295;28;20024;-66
2023/01/23 09:32:46;;;;;;;17.25;15.45;;;;;;;-4.61;87.97;96277.97;5086813;28;20060;-74
2023/01/23 09:35:11;;;;;;;18.27;16.02;;;;;;;-4.62;87.55;96277.13;5088416;28;20095;-74
2023/01/23 09:40:22;;;;;;;19.98;17.92;;;;;;;-4.52;86.13;96270.03;5086105;28;20046;-74
2023/01/23 09:42:50;;;;;;;17.67;15.70;;;;;;;-4.48;86.33;96268.25;5067796;28;20754;-75
2023/01/23 09:45:21;;;;;;;23.08;20.50;;;;;;;-4.57;85.23;96268.44;5086843;28;20031;-74
2023/01/23 09:47:49;;;;;;;23.23;20.60;;;;;;;-4.45;85.54;96265.59;5086363;28;20036;-65
2023/01/23 09:50:28;;;;;;;24.60;19.42;;;;;;;-4.17;84.99;96263.22;5085347;28;20031;-63
2023/01/23 09:53:15;;;;;;;18.65;16.75;;;;;;;-3.80;84.35;96261.44;5090115;28;20028;-64
2023/01/23 09:55:52;;;;;;;17.42;15.68;;;;;;;-3.42;83.15;96256.13;5089588;28;20062;-64
2023/01/23 09:58:23;;;;;;;17.92;16.17;;;;;;;-3.10;81.95;96256.09;5091497;28;20374;-62
2023/01/23 10:00:50;;;;;;;19.35;17.45;;;;;;;-2.94;80.40;96252.19;5091116;28;20024;-63
2023/01/23 10:03:16;;;;;;;17.17;15.48;;;;;;;-2.70;79.36;96249.78;5090788;28;20607;-63
2023/01/23 10:06:22;;;;;;;18.13;16.33;;;;;;;-2.49;77.76;96240.50;5091178;28;20077;-62
2023/01/23 10:09:12;;;;;;;19.13;15.98;;;;;;;-2.33;77.29;96242.59;5087618;28;20135;-75
2023/01/23 10:12:01;;;;;;;20.27;18.38;;;;;;;-2.00;76.65;96236.38;5091054;28;20032;-74
2023/01/23 10:14:51;;;;;;;13.68;12.32;;;;;;;-1.80;75.17;96249.47;5100910;28;20036;-75
2023/01/23 10:17:25;;;;;;;12.15;10.98;;;;;;;-1.69;74.91;96259.41;5090705;28;20095;-75
2023/01/23 10:20:12;;;;;;;14.32;12.88;;;;;;;-1.58;74.75;96246.13;5090994;28;20024;-75
2023/01/23 10:22:47;;;;;;;16.90;14.07;;;;;;;-1.54;74.61;96244.28;5090707;28;20054;-75
2023/01/23 10:25:24;;;;;;;17.33;12.45;;;;;;;-1.52;73.75;96245.09;5090333;28;20465;-75
2023/01/23 10:27:50;;;;;;;14.77;13.38;;;;;;;-1.56;74.09;96238.31;5081441;28;20062;-61
2023/01/23 10:30:25;;;;;;;15.65;14.05;;;;;;;-1.49;74.91;96245.78;5070731;28;20107;-63
2023/01/23 10:32:50;;;;;;;14.65;13.15;;;;;;;-1.29;74.04;96236.50;5090721;28;20056;-64
2023/01/23 10:35:25;;;;;;;14.20;12.38;;;;;;;-1.04;72.68;96230.41;5089871;28;20058;-63
2023/01/23 10:37:59;;;;;;;13.15;11.82;;;;;;;-0.81;72.76;96239.03;5090704;28;20486;-64
2023/01/23 10:43:16;;;;;;;14.15;12.65;;;;;;;-0.55;70.80;96226.84;5090309;28;20035;-63
2023/01/23 10:45:43;;;;;;;12.60;11.35;;;;;;;-0.38;70.88;96218.44;5077927;28;20031;-70
2023/01/23 10:48:30;;;;;;;11.60;10.50;;;;;;;-0.24;68.45;96218.69;5090218;28;20024;-61
2023/01/23 10:50:56;;;;;;;11.65;10.55;;;;;;;-0.27;69.15;96213.63;5081542;28;20405;-67
2023/01/23 10:53:24;;;;;;;14.20;12.90;;;;;;;-0.24;69.82;96215.28;5086610;28;20073;-68
2023/01/23 10:55:51;;;;;;;12.70;11.63;;;;;;;-0.02;68.75;96212.63;5089866;28;20078;-67
2023/01/23 10:58:35;;;;;;;14.00;12.63;;;;;;;0.17;67.22;96209.25;5089967;28;20020;-67
2023/01/23 11:01:01;;;;;;;15.93;14.32;;;;;;;0.08;67.54;96210.50;5076831;28;20024;-64
2023/01/23 11:03:31;;;;;;;17.00;15.25;;;;;;;0.17;67.72;96202.34;5087977;28;20024;-67
2023/01/23 11:06:07;;;;;;;20.30;18.05;;;;;;;0.40;66.63;96196.16;5086306;28;20469;-70
2023/01/23 11:08:37;;;;;;;;;;;;;;;0.41;66.12;96187.47;5086154;28;20016;-61
2023/01/23 11:11:18;;;;;;;25.50;20.73;;;;;;;0.21;65.72;96190.09;5088731;28;19938;-61
2023/01/23 11:13:46;;;;;;;25.25;19.23;;;;;;;0.37;66.28;96200.66;5098152;28;20031;-61
2023/01/23 11:16:14;;;;;;;23.73;21.25;;;;;;;0.21;66.16;96196.13;5090024;28;20020;-61
2023/01/23 11:18:43;;;;;;;23.38;19.00;;;;;;;0.13;67.57;96195.63;5089684;28;20081;-61
2023/01/23 11:21:28;;;;;;;19.45;15.57;;;;;;;0.61;66.68;96187.53;5089415;28;20120;-61
2023/01/23 11:24:18;;;;;;;17.83;16.02;;;;;;;0.78;64.76;96200.56;5089563;28;20066;-65
2023/01/23 11:26:43;;;;;;;17.67;15.88;;;;;;;0.96;64.39;96195.44;5089811;28;20097;-64
2023/01/23 11:29:20;;;;;;;18.63;16.75;;;;;;;1.08;64.66;96197.47;5089563;28;20541;-61
2023/01/23 11:31:46;;;;;;;20.10;18.10;;;;;;;1.12;63.67;96185.22;5087666;28;20028;-61